createdAt,value
2022-10-05T00:00:23.277Z,2.90
2022-10-05T00:02:52.515Z,2.40
2022-10-05T00:05:32.007Z,2.70
2022-10-05T00:08:14.201Z,3.00
2022-10-05T00:10:42.529Z,2.95
2022-10-05T00:13:27.254Z,2.80
2022-10-05T00:16:04.941Z,2.78
2022-10-05T00:18:32.745Z,2.90
2022-10-05T00:21:00.157Z,2.70
2022-10-05T00:23:31.760Z,2.97
2022-10-05T00:26:32.163Z,2.83
2022-10-05T00:28:58.975Z,2.55
2022-10-05T00:31:31.041Z,2.60
2022-10-05T00:33:58.093Z,2.75
2022-10-05T00:36:26.297Z,2.45
2022-10-05T00:38:54.215Z,2.35
2022-10-05T00:41:59.126Z,2.72
2022-10-05T00:44:38.567Z,2.90
2022-10-05T00:47:08.011Z,2.55
2022-10-05T00:50:08.277Z,4.05
2022-10-05T00:52:46.729Z,2.42
2022-10-05T00:55:19.519Z,2.70
2022-10-05T00:57:55.258Z,2.90
2022-10-05T01:00:26.305Z,2.67
2022-10-05T01:03:06.639Z,2.88
2022-10-05T01:05:47.888Z,2.65
2022-10-05T01:08:30.657Z,2.58
2022-10-05T01:11:12.604Z,2.85
2022-10-05T01:13:55.398Z,2.60
2022-10-05T01:16:54.542Z,2.60
2022-10-05T01:19:30.020Z,2.72
2022-10-05T01:22:35.766Z,2.35
2022-10-05T01:25:18.941Z,2.50
2022-10-05T01:28:05.860Z,2.65
2022-10-05T01:30:42.901Z,2.40
2022-10-05T01:33:27.911Z,3.17
2022-10-05T01:36:33.132Z,2.50
2022-10-05T01:39:14.149Z,2.97
2022-10-05T01:42:08.069Z,2.72
2022-10-05T01:44:57.804Z,3.03
2022-10-05T01:47:37.148Z,2.50
2022-10-05T01:50:07.123Z,2.90
2022-10-05T01:52:47.448Z,2.38
2022-10-05T01:55:39.231Z,2.97
2022-10-05T01:58:36.484Z,2.83
2022-10-05T02:01:35.266Z,2.58
2022-10-05T02:04:43.365Z,2.35
2022-10-05T02:07:16.808Z,2.70
2022-10-05T02:09:59.218Z,2.60
2022-10-05T02:12:29.469Z,2.95
2022-10-05T02:15:02.454Z,3.42
2022-10-05T02:17:59.295Z,2.38
2022-10-05T02:20:30.201Z,2.75
2022-10-05T02:23:12.668Z,2.33
2022-10-05T02:25:42.878Z,2.60
2022-10-05T02:28:43.567Z,2.83
2022-10-05T02:31:22.590Z,2.90
2022-10-05T02:33:49.392Z,2.53
2022-10-05T02:36:19.915Z,2.33
2022-10-05T02:39:18.288Z,2.60
2022-10-05T02:42:02.482Z,2.53
2022-10-05T02:44:34.912Z,2.67
2022-10-05T02:47:13.507Z,2.80
2022-10-05T02:50:07.978Z,2.58
2022-10-05T02:53:01.686Z,2.80
2022-10-05T02:55:35.669Z,2.40
2022-10-05T02:58:02.252Z,2.65
2022-10-05T03:00:34.397Z,2.60
2022-10-05T03:03:19.416Z,2.70
2022-10-05T03:05:53.334Z,2.97
2022-10-05T03:08:27.071Z,2.60
2022-10-05T03:11:27.617Z,3.08
2022-10-05T03:14:09.634Z,2.30
2022-10-05T03:16:55.489Z,2.30
2022-10-05T03:19:43.560Z,2.55
2022-10-05T03:22:50.489Z,2.45
2022-10-05T03:25:38.363Z,3.13
2022-10-05T03:28:23.661Z,3.08
2022-10-05T03:31:03.097Z,2.72
2022-10-05T03:33:53.314Z,2.70
2022-10-05T03:36:42.794Z,2.97
2022-10-05T03:39:27.096Z,2.60
2022-10-05T03:42:21.250Z,2.97
2022-10-05T03:45:06.666Z,2.22
2022-10-05T03:48:01.670Z,2.15
2022-10-05T03:50:55.519Z,2.38
2022-10-05T03:53:25.515Z,2.80
2022-10-05T03:55:59.772Z,2.05
2022-10-05T03:58:34.753Z,2.50
2022-10-05T04:01:07.490Z,2.42
2022-10-05T04:03:40.567Z,2.17
2022-10-05T04:06:16.163Z,3.08
2022-10-05T04:08:57.476Z,2.50
2022-10-05T04:11:34.376Z,2.83
2022-10-05T04:14:07.435Z,2.60
2022-10-05T04:16:41.334Z,2.97
2022-10-05T04:19:19.382Z,2.67
2022-10-05T04:22:07.847Z,2.70
2022-10-05T04:24:53.324Z,2.70
2022-10-05T04:27:24.391Z,2.40
2022-10-05T04:30:02.558Z,2.47
2022-10-05T04:32:43.959Z,2.65
2022-10-05T04:35:26.174Z,3.40
2022-10-05T04:37:55.830Z,3.42
2022-10-05T04:40:25.423Z,2.95
2022-10-05T04:43:17.826Z,3.05
2022-10-05T04:45:56.209Z,2.53
2022-10-05T04:48:31.989Z,2.72
2022-10-05T04:51:40.067Z,2.55
2022-10-05T04:54:20.882Z,2.92
2022-10-05T04:57:01.781Z,3.08
2022-10-05T04:59:54.816Z,2.97
2022-10-05T05:02:39.845Z,3.17
2022-10-05T05:05:23.324Z,2.80
2022-10-05T05:08:16.991Z,3.20
2022-10-05T05:10:52.794Z,3.40
2022-10-05T05:13:43.340Z,3.40
2022-10-05T05:16:28.278Z,3.28
2022-10-05T05:19:07.018Z,3.10
2022-10-05T05:21:58.280Z,3.40
2022-10-05T05:24:32.298Z,3.00
2022-10-05T05:27:13.236Z,2.55
2022-10-05T05:30:07.718Z,3.40
2022-10-05T05:32:52.552Z,2.88
2022-10-05T05:35:41.145Z,3.08
2022-10-05T05:38:13.501Z,3.53
2022-10-05T05:40:59.607Z,3.92
2022-10-05T05:43:41.744Z,3.17
2022-10-05T05:46:58.281Z,3.30
2022-10-05T05:49:27.811Z,3.33
2022-10-05T05:52:04.977Z,3.28
2022-10-05T05:54:37.402Z,3.55
2022-10-05T05:57:25.459Z,3.00
2022-10-05T05:59:56.723Z,3.92
2022-10-05T06:02:43.022Z,3.80
2022-10-05T06:05:27.335Z,4.32
2022-10-05T06:07:56.003Z,3.07
2022-10-05T06:10:45.337Z,4.38
2022-10-05T06:13:19.343Z,3.60
2022-10-05T06:15:54.852Z,2.20
2022-10-05T06:18:23.053Z,4.13
2022-10-05T06:20:56.406Z,3.92
2022-10-05T06:23:34.598Z,3.90
2022-10-05T06:26:22.665Z,2.95
2022-10-05T06:29:00.568Z,2.83
2022-10-05T06:31:37.294Z,3.75
2022-10-05T06:34:33.232Z,2.78
2022-10-05T06:37:05.933Z,2.90
2022-10-05T06:40:00.785Z,2.90
2022-10-05T06:42:30.446Z,2.83
2022-10-05T06:45:27.867Z,2.58
2022-10-05T06:48:15.245Z,2.40
2022-10-05T06:50:46.334Z,2.92
2022-10-05T06:53:31.538Z,3.70
2022-10-05T06:58:48.280Z,2.83
2022-10-05T07:01:24.433Z,3.45
2022-10-05T07:04:03.053Z,2.70
2022-10-05T07:06:55.237Z,2.20
2022-10-05T07:09:52.823Z,2.60
2022-10-05T07:12:28.398Z,2.92
2022-10-05T07:15:19.669Z,2.90
2022-10-05T07:17:56.876Z,3.50
2022-10-05T07:20:49.354Z,2.70
2022-10-05T07:23:22.325Z,2.42
2022-10-05T07:26:12.514Z,2.28
2022-10-05T07:29:06.879Z,2.47
2022-10-05T07:31:41.526Z,2.42
2022-10-05T07:34:14.269Z,2.65
2022-10-05T07:37:08.261Z,2.22
2022-10-05T07:39:59.740Z,3.05
2022-10-05T07:42:30.471Z,2.90
2022-10-05T07:45:18.449Z,3.60
2022-10-05T07:47:55.238Z,3.47
2022-10-05T07:50:47.398Z,3.20
2022-10-05T07:53:31.626Z,3.90
2022-10-05T07:56:14.820Z,3.30
2022-10-05T07:58:48.433Z,3.05
2022-10-05T08:01:22.136Z,3.03
2022-10-05T08:04:17.549Z,3.40
2022-10-05T08:06:52.903Z,3.80
2022-10-05T08:09:37.831Z,4.03
2022-10-05T08:12:33.354Z,4.03
2022-10-05T08:17:43.713Z,3.63
2022-10-05T08:20:22.692Z,3.60
2022-10-05T08:22:59.687Z,4.03
2022-10-05T08:25:36.530Z,3.65
2022-10-05T08:28:10.119Z,4.60
2022-10-05T08:30:51.864Z,4.43
2022-10-05T08:33:20.868Z,5.07
2022-10-05T08:36:00.432Z,4.25
2022-10-05T08:38:33.492Z,4.07
2022-10-05T08:45:42.474Z,3.85
2022-10-05T08:48:33.692Z,4.20
2022-10-05T08:51:15.501Z,4.32
2022-10-05T08:54:13.368Z,4.70
2022-10-05T08:56:48.727Z,4.10
2022-10-05T08:59:43.216Z,4.63
2022-10-05T09:02:24.947Z,4.28
2022-10-05T09:05:03.103Z,4.18
2022-10-05T09:07:29.720Z,4.32
2022-10-05T09:10:14.874Z,4.53
2022-10-05T09:16:00.558Z,4.45
2022-10-05T09:18:49.931Z,3.75
2022-10-05T09:21:22.734Z,3.75
2022-10-05T09:24:04.738Z,3.80
2022-10-05T09:26:53.506Z,3.60
2022-10-05T09:29:35.460Z,3.83
2022-10-05T09:32:40.085Z,3.72
2022-10-05T09:35:17.638Z,3.42
2022-10-05T09:37:59.067Z,3.67
2022-10-05T09:40:45.166Z,3.90
2022-10-05T09:43:26.769Z,3.35
2022-10-05T09:45:59.390Z,3.95
2022-10-05T09:48:37.918Z,4.10
2022-10-05T09:51:14.119Z,3.90
2022-10-05T09:54:05.620Z,3.83
2022-10-05T09:56:51.837Z,3.30
2022-10-05T09:59:21.234Z,3.45
2022-10-05T10:02:18.932Z,4.05
2022-10-05T10:05:22.959Z,4.63
2022-10-05T10:08:04.802Z,3.85
2022-10-05T10:10:58.307Z,3.33
2022-10-05T10:13:46.789Z,3.97
2022-10-05T10:16:49.672Z,3.53
2022-10-05T10:19:31.195Z,3.50
2022-10-05T10:22:28.559Z,3.58
2022-10-05T10:25:13.578Z,3.85
2022-10-05T10:27:55.716Z,4.07
2022-10-05T10:30:36.426Z,4.40
2022-10-05T10:33:13.834Z,3.33
2022-10-05T10:35:46.971Z,3.08
2022-10-05T10:38:32.225Z,3.83
2022-10-05T10:41:32.512Z,3.40
2022-10-05T10:44:14.088Z,3.70
2022-10-05T10:47:10.161Z,3.53
2022-10-05T10:50:14.299Z,3.47
2022-10-05T10:53:18.446Z,3.42
2022-10-05T10:55:51.045Z,3.63
2022-10-05T10:58:51.865Z,3.33
2022-10-05T11:01:41.908Z,3.35
2022-10-05T11:04:27.397Z,3.40
2022-10-05T11:07:15.092Z,3.20
2022-10-05T11:10:00.592Z,3.42
2022-10-05T11:12:45.131Z,3.38
2022-10-05T11:15:30.634Z,3.20
2022-10-05T11:18:05.550Z,3.63
2022-10-05T11:20:50.746Z,3.22
2022-10-05T11:26:14.694Z,3.67
2022-10-05T11:28:49.489Z,3.50
2022-10-05T11:34:13.213Z,3.80
2022-10-05T11:37:01.518Z,3.42
2022-10-05T11:39:44.216Z,3.92
2022-10-05T11:42:33.840Z,3.70
2022-10-05T11:45:21.864Z,3.88
2022-10-05T11:48:03.837Z,4.15
2022-10-05T11:50:39.818Z,3.90
2022-10-05T11:53:27.151Z,4.03
2022-10-05T11:55:57.813Z,3.92
2022-10-05T11:59:19.167Z,3.65
2022-10-05T12:01:56.700Z,4.22
2022-10-05T12:04:33.375Z,3.92
2022-10-05T12:07:21.149Z,4.20
2022-10-05T12:10:17.518Z,3.53
2022-10-05T12:13:05.569Z,4.25
2022-10-05T12:15:56.901Z,4.32
2022-10-05T12:18:49.392Z,4.10
2022-10-05T12:21:22.844Z,3.72
2022-10-05T12:24:12.926Z,4.45
2022-10-05T12:26:58.540Z,3.83
2022-10-05T12:29:34.739Z,4.00
2022-10-05T12:32:11.749Z,3.83
2022-10-05T12:35:05.277Z,4.13
2022-10-05T12:37:39.413Z,4.28
2022-10-05T12:40:16.927Z,4.00
2022-10-05T12:43:03.497Z,4.22
2022-10-05T12:45:55.150Z,4.82
2022-10-05T12:48:49.283Z,4.20
2022-10-05T12:51:28.714Z,4.13
2022-10-05T12:54:06.568Z,4.10
2022-10-05T12:56:42.210Z,4.15
2022-10-05T12:59:14.726Z,3.97
2022-10-05T13:01:50.612Z,3.58
2022-10-05T13:04:40.853Z,4.10
2022-10-05T13:07:32.020Z,3.28
2022-10-05T13:10:37.711Z,4.03
2022-10-05T13:13:21.413Z,3.97
2022-10-05T13:16:23.412Z,3.55
2022-10-05T13:19:05.937Z,4.00
2022-10-05T13:21:58.840Z,3.45
2022-10-05T13:24:37.966Z,3.75
2022-10-05T13:27:23.544Z,3.13
2022-10-05T13:29:58.906Z,3.65
2022-10-05T13:32:32.163Z,4.03
2022-10-05T13:35:17.665Z,2.95
2022-10-05T13:37:52.422Z,3.10
2022-10-05T13:43:27.034Z,3.10
2022-10-05T13:46:07.525Z,2.78
2022-10-05T13:49:14.561Z,3.10
2022-10-05T13:51:47.235Z,3.13
2022-10-05T13:54:23.030Z,3.22
2022-10-05T13:57:06.490Z,2.60
2022-10-05T13:59:48.255Z,3.20
2022-10-05T14:02:22.985Z,3.80
2022-10-05T14:07:48.116Z,2.92
2022-10-05T14:10:28.458Z,2.92
2022-10-05T14:12:55.532Z,2.83
2022-10-05T14:15:29.024Z,3.10
2022-10-05T14:17:55.706Z,3.08
2022-10-05T14:20:31.623Z,3.50
2022-10-05T14:23:01.798Z,3.28
2022-10-05T14:25:45.748Z,3.20
2022-10-05T14:28:12.294Z,2.85
2022-10-05T14:30:39.945Z,2.70
2022-10-05T14:33:06.525Z,3.45
2022-10-05T14:35:51.441Z,2.90
2022-10-05T14:38:30.454Z,2.80
2022-10-05T14:41:16.195Z,2.45
2022-10-05T14:44:26.276Z,3.13
2022-10-05T14:47:02.790Z,2.50
2022-10-05T14:49:36.129Z,2.72
2022-10-05T14:52:33.127Z,2.88
2022-10-05T14:55:24.298Z,2.90
2022-10-05T14:58:10.437Z,2.55
2022-10-05T15:00:55.582Z,2.50
2022-10-05T15:06:16.004Z,2.80
2022-10-05T15:09:02.588Z,3.00
2022-10-05T15:11:47.087Z,2.70
2022-10-05T15:14:24.259Z,2.67
2022-10-05T15:16:54.410Z,2.80
2022-10-05T15:19:31.319Z,2.67
2022-10-05T15:22:01.102Z,2.70
2022-10-05T15:24:41.252Z,2.70
2022-10-05T15:27:25.401Z,3.13
2022-10-05T15:30:04.560Z,3.00
2022-10-05T15:32:42.990Z,3.13
2022-10-05T15:35:33.124Z,3.38
2022-10-05T15:38:11.930Z,2.90
2022-10-05T15:40:51.830Z,2.90
2022-10-05T15:43:22.002Z,2.95
2022-10-05T15:46:14.070Z,2.60
2022-10-05T15:48:49.886Z,3.10
2022-10-05T15:51:51.678Z,2.72
2022-10-05T15:54:41.979Z,2.88
2022-10-05T15:57:25.184Z,2.78
2022-10-05T16:00:04.357Z,2.83
2022-10-05T16:03:01.959Z,3.00
2022-10-05T16:05:56.463Z,3.03
2022-10-05T16:08:53.721Z,3.05
2022-10-05T16:11:32.947Z,2.90
2022-10-05T16:14:00.037Z,2.75
2022-10-05T16:16:35.129Z,2.70
2022-10-05T16:19:38.828Z,2.72
2022-10-05T16:22:23.554Z,3.05
2022-10-05T16:24:58.035Z,3.72
2022-10-05T16:27:35.157Z,4.03
2022-10-05T16:30:18.366Z,3.92
2022-10-05T16:32:56.705Z,3.10
2022-10-05T16:35:29.255Z,3.75
2022-10-05T16:38:41.066Z,3.85
2022-10-05T16:41:23.969Z,3.65
2022-10-05T16:44:02.725Z,3.20
2022-10-05T16:46:59.488Z,2.90
2022-10-05T16:49:38.376Z,3.88
2022-10-05T16:52:10.296Z,3.83
2022-10-05T16:54:47.888Z,3.55
2022-10-05T16:57:22.045Z,3.78
2022-10-05T17:00:04.325Z,3.60
2022-10-05T17:02:36.882Z,3.95
2022-10-05T17:05:15.677Z,3.35
2022-10-05T17:07:59.475Z,4.07
2022-10-05T17:10:50.356Z,3.90
2022-10-05T17:13:43.482Z,3.40
2022-10-05T17:16:41.440Z,3.40
2022-10-05T17:19:15.257Z,3.95
2022-10-05T17:22:00.570Z,3.50
2022-10-05T17:24:49.434Z,3.70
2022-10-05T17:27:32.909Z,4.20
2022-10-05T17:30:20.082Z,4.13
2022-10-05T17:33:00.248Z,4.07
2022-10-05T17:35:51.930Z,3.83
2022-10-05T17:38:41.784Z,3.85
2022-10-05T17:41:22.065Z,4.18
2022-10-05T17:44:24.481Z,4.63
2022-10-05T17:46:56.856Z,5.10
2022-10-05T17:49:46.857Z,3.72
2022-10-05T17:52:45.227Z,4.13
2022-10-05T17:55:38.629Z,3.78
2022-10-05T17:58:23.989Z,3.42
2022-10-05T18:00:57.317Z,3.67
2022-10-05T18:03:43.633Z,3.88
2022-10-05T18:06:24.403Z,3.55
2022-10-05T18:09:20.900Z,3.28
2022-10-05T18:12:27.361Z,3.50
2022-10-05T18:15:08.868Z,3.35
2022-10-05T18:17:47.048Z,3.75
2022-10-05T18:20:27.121Z,3.67
2022-10-05T18:22:55.731Z,3.17
2022-10-05T18:25:52.615Z,3.60
2022-10-05T18:28:34.445Z,3.28
2022-10-05T18:31:10.100Z,4.32
2022-10-05T18:33:57.380Z,4.00
2022-10-05T18:37:01.929Z,3.30
2022-10-05T18:39:54.210Z,3.78
2022-10-05T18:42:50.549Z,4.30
2022-10-05T18:45:35.451Z,3.88
2022-10-05T18:48:30.607Z,3.33
2022-10-05T18:51:33.651Z,3.53
2022-10-05T18:54:44.826Z,3.75
2022-10-05T18:57:36.194Z,3.58
2022-10-05T19:00:16.487Z,3.83
2022-10-05T19:02:59.465Z,3.80
2022-10-05T19:05:48.399Z,3.58
2022-10-05T19:08:15.429Z,3.85
2022-10-05T19:10:52.008Z,3.75
2022-10-05T19:13:34.201Z,3.67
2022-10-05T19:16:15.825Z,4.10
2022-10-05T19:18:42.484Z,3.55
2022-10-05T19:21:24.719Z,3.88
2022-10-05T19:24:18.900Z,3.67
2022-10-05T19:27:11.747Z,3.42
2022-10-05T19:30:30.111Z,3.95
2022-10-05T19:33:26.252Z,3.80
2022-10-05T19:36:18.723Z,4.00
2022-10-05T19:39:00.524Z,3.70
2022-10-05T19:41:27.727Z,4.18
2022-10-05T19:44:15.435Z,4.03
2022-10-05T19:46:52.184Z,3.63
2022-10-05T19:49:43.252Z,4.00
2022-10-05T19:52:22.285Z,3.78
2022-10-05T19:55:02.317Z,3.90
2022-10-05T19:57:29.050Z,3.53
2022-10-05T19:59:58.495Z,3.97
2022-10-05T20:02:28.301Z,4.03
2022-10-05T20:05:06.635Z,3.97
2022-10-05T20:07:34.458Z,4.18
2022-10-05T20:10:29.412Z,4.13
2022-10-05T20:13:01.338Z,3.95
2022-10-05T20:15:49.510Z,3.92
2022-10-05T20:19:19.486Z,4.15
2022-10-05T20:21:50.582Z,3.97
2022-10-05T20:24:26.181Z,4.00
2022-10-05T20:27:07.229Z,4.07
2022-10-05T20:29:40.915Z,4.53
2022-10-05T20:32:12.152Z,4.25
2022-10-05T20:34:41.626Z,4.75
2022-10-05T20:37:09.725Z,4.10
2022-10-05T20:39:36.389Z,4.05
2022-10-05T20:42:03.854Z,4.22
2022-10-05T20:44:31.281Z,4.38
2022-10-05T20:46:58.730Z,4.43
2022-10-05T20:49:26.515Z,4.53
2022-10-05T20:51:55.771Z,4.18
2022-10-05T20:54:23.852Z,4.05
2022-10-05T20:56:51.520Z,4.40
2022-10-05T20:59:18.231Z,4.45
2022-10-05T21:01:50.959Z,4.82
2022-10-05T21:04:22.684Z,4.82
2022-10-05T21:06:49.893Z,4.32
2022-10-05T21:09:19.396Z,3.78
2022-10-05T21:11:47.367Z,4.40
2022-10-05T21:14:14.110Z,4.40
2022-10-05T21:16:41.379Z,4.55
2022-10-05T21:19:09.583Z,4.40
2022-10-05T21:21:40.661Z,4.65
2022-10-05T21:24:07.978Z,4.57
2022-10-05T21:26:34.702Z,4.38
2022-10-05T21:29:02.471Z,4.50
2022-10-05T21:31:29.680Z,4.68
2022-10-05T21:33:56.680Z,4.38
2022-10-05T21:36:24.749Z,4.75
2022-10-05T21:38:53.051Z,4.88
2022-10-05T21:41:20.537Z,4.40
2022-10-05T21:43:47.643Z,4.18
2022-10-05T21:46:20.409Z,4.07
2022-10-05T21:48:48.065Z,4.35
2022-10-05T21:51:18.945Z,4.15
2022-10-05T21:53:53.507Z,4.30
2022-10-05T21:56:22.510Z,4.53
2022-10-05T21:58:50.205Z,3.90
2022-10-05T22:01:22.435Z,4.13
2022-10-05T22:03:49.666Z,3.85
2022-10-05T22:06:16.369Z,4.28
2022-10-05T22:08:43.038Z,4.20
2022-10-05T22:11:17.770Z,4.25
2022-10-05T22:13:48.764Z,4.60
2022-10-05T22:16:17.313Z,4.47
2022-10-05T22:18:44.289Z,4.15
2022-10-05T22:21:13.183Z,4.78
2022-10-05T22:23:41.605Z,4.38
2022-10-05T22:26:10.643Z,4.47
2022-10-05T22:28:39.698Z,4.28
2022-10-05T22:31:08.503Z,4.32
2022-10-05T22:33:37.055Z,4.25
2022-10-05T22:36:04.829Z,4.20
2022-10-05T22:38:31.741Z,4.57
2022-10-05T22:40:58.805Z,4.43
2022-10-05T22:43:29.018Z,4.60
2022-10-05T22:45:56.219Z,4.70
2022-10-05T22:48:23.313Z,4.90
2022-10-05T22:50:50.011Z,4.18
2022-10-05T22:53:16.789Z,4.30
2022-10-05T22:55:43.480Z,4.30
2022-10-05T22:58:10.153Z,4.45
2022-10-05T23:00:57.039Z,4.70
2022-10-05T23:03:23.475Z,4.78
2022-10-05T23:05:56.931Z,4.30
2022-10-05T23:08:23.600Z,5.53
2022-10-05T23:10:50.273Z,4.80
2022-10-05T23:13:17.081Z,4.40
2022-10-05T23:15:44.975Z,4.60
2022-10-05T23:18:12.371Z,4.95
2022-10-05T23:20:40.267Z,4.70
2022-10-05T23:23:06.925Z,4.57
2022-10-05T23:25:33.671Z,4.63
2022-10-05T23:28:02.640Z,4.47
2022-10-05T23:30:29.679Z,4.72
2022-10-05T23:32:56.362Z,4.50
2022-10-05T23:35:23.105Z,4.75
2022-10-05T23:37:49.758Z,4.40
2022-10-05T23:40:16.491Z,4.43
2022-10-05T23:42:43.253Z,5.18
2022-10-05T23:45:11.578Z,5.03
2022-10-05T23:47:39.489Z,4.90
2022-10-05T23:50:07.923Z,5.05
2022-10-05T23:52:35.465Z,4.88
2022-10-05T23:55:03.622Z,4.32
2022-10-05T23:57:30.264Z,4.63
2022-10-05T23:59:56.925Z,4.50
